»·PEaware :: N112PC KSAF-KGEU

N112PC :: KSAF-KGEU

FLIGHT INFORMATION

Flight Status: Arrived
Operator: Privately registered:
United States
More flights under this callsign
Pilot: Gabor H. (24209)
Aircraft: PILATUS PC-12 EAGLE
(PC12)
More flights by this aircraft type
Origin: KSAF Santa Fe Mun
United States
Destination: KGEU Glendale Mun
United States
More flights between these airports :: More routes between these airports
Route: GUP INW DSERT2
File this flight plan on PilotEdge
Remarks:
Altitude:
(Current/Filed)
28,000ft
Speed:
(Current/Filed)
260kts
Departed: 07-Jun-19 02:10 PM
Arrived: 07-Jun-19 03:45 PM
Distance/Time
Traveled:
331nm/1:35
Distance/Time
To Go:
Arrived

Flight Plot

Page will automatically refresh every two minutes.

Flight plan parsing failed; only flown route is shown


Map Options




Map Legend


Flown Route
Filed Route
Departure Airport
Arrival Airport
Navaid (VOR, NDB)
Fix

Horizontal Profiles

Position Reports

Time Latitude Longitude Heading Altitude Ground
Speed
07-Jun-19 13:57 35.619386 -106.083105 214 6351ft 0kts
07-Jun-19 13:58 35.619386 -106.083105 214 6351ft 0kts
07-Jun-19 13:59 35.619386 -106.083105 214 6351ft 0kts
07-Jun-19 14:00 35.619386 -106.083105 214 6351ft 0kts
07-Jun-19 14:01 35.619386 -106.083105 214 6351ft 0kts
07-Jun-19 14:02 35.619386 -106.083105 214 6351ft 0kts
07-Jun-19 14:03 35.619386 -106.083105 214 6351ft 0kts
07-Jun-19 14:04 35.619367 -106.083120 214 6351ft 0kts
07-Jun-19 14:05 35.619593 -106.084801 208 6351ft 5kts
07-Jun-19 14:06 35.616678 -106.085523 149 6351ft 18kts
07-Jun-19 14:07 35.615092 -106.081482 192 6351ft 3kts
07-Jun-19 14:08 35.614858 -106.081550 194 6351ft 0kts
07-Jun-19 14:09 35.614617 -106.083138 292 6351ft 47kts
07-Jun-19 14:10 35.621067 -106.120163 255 7661ft 140kts
07-Jun-19 14:11 35.614833 -106.175441 264 9314ft 185kts
07-Jun-19 14:12 35.611614 -106.242883 265 10840ft 207kts
07-Jun-19 14:13 35.608555 -106.314891 265 12348ft 213kts
07-Jun-19 14:14 35.605513 -106.389207 265 13861ft 224kts
07-Jun-19 14:15 35.602157 -106.466752 265 15365ft 229kts
07-Jun-19 14:16 35.598797 -106.544728 265 16886ft 230kts
07-Jun-19 14:17 35.595247 -106.623648 265 18378ft 231kts
07-Jun-19 14:18 35.591837 -106.700616 265 19861ft 222kts
07-Jun-19 14:19 35.588392 -106.775712 265 21367ft 221kts
07-Jun-19 14:20 35.585030 -106.850692 264 22887ft 224kts
07-Jun-19 14:21 35.581571 -106.925686 264 24376ft 220kts
07-Jun-19 14:22 35.578140 -106.998849 264 25884ft 216kts
07-Jun-19 14:23 35.574828 -107.069103 264 27251ft 199kts
07-Jun-19 14:24 35.571387 -107.139510 264 28089ft 224kts
07-Jun-19 14:25 35.567502 -107.217968 264 28101ft 234kts
07-Jun-19 14:26 35.563511 -107.298395 264 28102ft 237kts
07-Jun-19 14:27 35.559431 -107.379554 263 28104ft 238kts
07-Jun-19 14:28 35.555299 -107.460626 263 28105ft 238kts
07-Jun-19 14:29 35.551063 -107.542453 263 28105ft 243kts
07-Jun-19 14:30 35.546781 -107.624493 263 28111ft 239kts
07-Jun-19 14:31 35.542471 -107.705986 263 28114ft 239kts
07-Jun-19 14:32 35.538107 -107.787424 263 28115ft 238kts
07-Jun-19 14:33 35.533712 -107.868429 263 28125ft 238kts
07-Jun-19 14:34 35.529191 -107.949384 263 28131ft 237kts
07-Jun-19 14:35 35.524741 -108.030343 263 28132ft 238kts
07-Jun-19 14:36 35.520195 -108.111412 263 28132ft 238kts
07-Jun-19 14:37 35.515585 -108.192478 263 28133ft 238kts
07-Jun-19 14:38 35.510913 -108.273736 263 28125ft 238kts
07-Jun-19 14:39 35.506214 -108.354565 263 28121ft 237kts
07-Jun-19 14:40 35.501470 -108.435306 263 28122ft 237kts
07-Jun-19 14:41 35.496685 -108.515951 263 28124ft 237kts
07-Jun-19 14:42 35.491800 -108.596571 262 28127ft 237kts
07-Jun-19 14:43 35.486975 -108.677154 263 28128ft 237kts
07-Jun-19 14:44 35.482124 -108.758004 263 28130ft 237kts
07-Jun-19 14:45 35.477376 -108.838557 263 28130ft 236kts
07-Jun-19 14:46 35.464944 -108.917122 254 28133ft 234kts
07-Jun-19 14:47 35.449148 -108.994660 254 28136ft 234kts
07-Jun-19 14:48 35.433072 -109.072051 254 28139ft 234kts
07-Jun-19 14:49 35.416845 -109.149578 253 28145ft 234kts
07-Jun-19 14:51 35.400646 -109.226896 253 28139ft 234kts
07-Jun-19 14:52 35.384440 -109.304112 253 28137ft 234kts
07-Jun-19 14:53 35.368117 -109.381161 253 28133ft 233kts
07-Jun-19 14:54 35.351782 -109.458158 253 28127ft 233kts
07-Jun-19 14:55 35.335325 -109.535488 253 28117ft 234kts
07-Jun-19 14:56 35.318881 -109.612513 253 28112ft 234kts
07-Jun-19 14:57 35.302159 -109.690454 253 28101ft 241kts
07-Jun-19 14:58 35.285017 -109.769978 253 28091ft 245kts
07-Jun-19 14:59 35.268023 -109.848834 253 28099ft 236kts
07-Jun-19 15:00 35.251303 -109.926453 253 28097ft 234kts
07-Jun-19 15:01 35.234516 -110.003667 253 28052ft 235kts
07-Jun-19 15:02 35.217849 -110.080342 253 28069ft 232kts
07-Jun-19 15:03 35.201232 -110.156521 253 28069ft 232kts
07-Jun-19 15:04 35.184539 -110.232728 253 28054ft 232kts
07-Jun-19 15:05 35.167750 -110.309160 253 28046ft 232kts
07-Jun-19 15:06 35.150970 -110.385340 253 28029ft 232kts
07-Jun-19 15:07 35.134167 -110.461420 253 28035ft 232kts
07-Jun-19 15:08 35.117346 -110.537429 253 28026ft 232kts
07-Jun-19 15:09 35.100492 -110.613506 253 28019ft 232kts
07-Jun-19 15:10 35.083617 -110.689798 253 28013ft 232kts
07-Jun-19 15:11 35.067003 -110.765858 252 28011ft 231kts
07-Jun-19 15:12 35.032536 -110.831192 232 28014ft 230kts
07-Jun-19 15:12 34.998006 -110.881448 230 28022ft 235kts
07-Jun-19 15:14 34.949021 -110.951458 230 28029ft 231kts
07-Jun-19 15:15 34.906007 -111.012411 230 27288ft 248kts
07-Jun-19 15:15 34.868310 -111.065501 230 26047ft 248kts
07-Jun-19 15:16 34.823555 -111.128715 230 24564ft 244kts
07-Jun-19 15:17 34.779967 -111.190367 230 23034ft 237kts
07-Jun-19 15:18 34.737424 -111.250517 229 21535ft 234kts
07-Jun-19 15:19 34.693165 -111.312744 229 20027ft 251kts
07-Jun-19 15:20 34.646916 -111.377525 228 18549ft 258kts
07-Jun-19 15:21 34.599285 -111.444237 228 17054ft 266kts
07-Jun-19 15:22 34.551596 -111.511130 228 15544ft 261kts
07-Jun-19 15:23 34.504046 -111.577950 228 14554ft 264kts
07-Jun-19 15:24 34.456674 -111.643942 221 14226ft 258kts
07-Jun-19 15:25 34.392312 -111.677814 197 14220ft 252kts
07-Jun-19 15:26 34.324610 -111.699490 195 14222ft 258kts
07-Jun-19 15:27 34.257890 -111.727171 209 13769ft 263kts
07-Jun-19 15:28 34.194682 -111.772366 211 12267ft 264kts
07-Jun-19 15:29 34.132890 -111.817425 211 10764ft 255kts
07-Jun-19 15:30 34.074180 -111.860027 212 10119ft 240kts
07-Jun-19 15:31 34.016810 -111.902988 212 9859ft 251kts
07-Jun-19 15:32 33.959793 -111.945663 211 8343ft 228kts
07-Jun-19 15:33 33.908031 -111.984257 211 6838ft 213kts
07-Jun-19 15:34 33.859163 -112.021840 212 6073ft 205kts
07-Jun-19 15:35 33.811603 -112.058455 212 6056ft 205kts
07-Jun-19 15:36 33.762889 -112.096106 212 5421ft 207kts
07-Jun-19 15:37 33.717275 -112.132497 213 4395ft 192kts
07-Jun-19 15:38 33.677303 -112.164657 213 3644ft 179kts
07-Jun-19 15:39 33.640037 -112.200040 220 3096ft 165kts
07-Jun-19 15:40 33.611985 -112.238533 227 2742ft 139kts
07-Jun-19 15:41 33.583354 -112.263265 205 2143ft 116kts
07-Jun-19 15:42 33.560428 -112.276049 201 1902ft 83kts
07-Jun-19 15:43 33.538652 -112.288379 205 1272ft 87kts
07-Jun-19 15:44 33.530645 -112.293696 297 1073ft 0kts
07-Jun-19 15:45 33.528155 -112.295400 197 1073ft 15kts
07-Jun-19 15:46 33.528416 -112.296754 56 1073ft 0kts
07-Jun-19 15:47 33.528416 -112.296754 56 1073ft 0kts
07-Jun-19 15:48 33.528416 -112.296754 56 1073ft 0kts
07-Jun-19 15:49 33.528416 -112.296754 56 1073ft 0kts

Navigation Log

Ident Type
Flight plan parsing failed, navigation log unavailable